sensor_id;sensor_type;location;lat;lon;timestamp;P1;durP1;ratioP1;P2;durP2;ratioP2
31424;SDS011;18054;51.572;7.372;2022-07-25T00:01:50;11.65;;;8.55;;
31424;SDS011;18054;51.572;7.372;2022-07-25T00:04:17;16.48;;;8.50;;
31424;SDS011;18054;51.572;7.372;2022-07-25T00:06:46;13.80;;;9.00;;
31424;SDS011;18054;51.572;7.372;2022-07-25T00:09:14;16.20;;;8.45;;
31424;SDS011;18054;51.572;7.372;2022-07-25T00:11:41;13.05;;;8.27;;
31424;SDS011;18054;51.572;7.372;2022-07-25T00:14:09;14.13;;;8.05;;
31424;SDS011;18054;51.572;7.372;2022-07-25T00:16:36;14.98;;;8.85;;
31424;SDS011;18054;51.572;7.372;2022-07-25T00:19:04;13.82;;;8.07;;
31424;SDS011;18054;51.572;7.372;2022-07-25T00:24:00;12.05;;;8.68;;
31424;SDS011;18054;51.572;7.372;2022-07-25T00:26:28;12.82;;;8.07;;
31424;SDS011;18054;51.572;7.372;2022-07-25T00:28:55;18.70;;;9.30;;
31424;SDS011;18054;51.572;7.372;2022-07-25T00:31:23;15.73;;;9.80;;
31424;SDS011;18054;51.572;7.372;2022-07-25T00:33:50;23.33;;;8.73;;
31424;SDS011;18054;51.572;7.372;2022-07-25T00:36:18;12.75;;;8.85;;
31424;SDS011;18054;51.572;7.372;2022-07-25T00:38:45;14.60;;;9.27;;
31424;SDS011;18054;51.572;7.372;2022-07-25T00:41:14;11.68;;;8.38;;
31424;SDS011;18054;51.572;7.372;2022-07-25T00:43:42;14.32;;;8.50;;
31424;SDS011;18054;51.572;7.372;2022-07-25T00:46:11;13.65;;;8.68;;
31424;SDS011;18054;51.572;7.372;2022-07-25T00:48:39;12.63;;;8.65;;
31424;SDS011;18054;51.572;7.372;2022-07-25T00:53:34;12.38;;;7.53;;
31424;SDS011;18054;51.572;7.372;2022-07-25T00:56:01;13.85;;;7.90;;
31424;SDS011;18054;51.572;7.372;2022-07-25T01:00:58;13.63;;;7.43;;
31424;SDS011;18054;51.572;7.372;2022-07-25T01:03:25;11.25;;;6.90;;
31424;SDS011;18054;51.572;7.372;2022-07-25T01:05:53;10.98;;;7.50;;
31424;SDS011;18054;51.572;7.372;2022-07-25T01:08:20;15.02;;;7.00;;
31424;SDS011;18054;51.572;7.372;2022-07-25T01:10:48;14.77;;;7.55;;
31424;SDS011;18054;51.572;7.372;2022-07-25T01:15:43;9.40;;;6.78;;
31424;SDS011;18054;51.572;7.372;2022-07-25T01:18:12;10.75;;;7.10;;
31424;SDS011;18054;51.572;7.372;2022-07-25T01:20:41;13.85;;;7.18;;
31424;SDS011;18054;51.572;7.372;2022-07-25T01:23:10;13.57;;;6.80;;
31424;SDS011;18054;51.572;7.372;2022-07-25T01:25:38;11.70;;;6.60;;
31424;SDS011;18054;51.572;7.372;2022-07-25T01:28:05;11.90;;;6.70;;
31424;SDS011;18054;51.572;7.372;2022-07-25T01:30:33;12.52;;;6.95;;
31424;SDS011;18054;51.572;7.372;2022-07-25T01:33:00;17.40;;;6.28;;
31424;SDS011;18054;51.572;7.372;2022-07-25T01:35:32;11.57;;;6.10;;
31424;SDS011;18054;51.572;7.372;2022-07-25T01:38:01;11.13;;;6.57;;
31424;SDS011;18054;51.572;7.372;2022-07-25T01:40:29;10.85;;;6.07;;
31424;SDS011;18054;51.572;7.372;2022-07-25T01:42:58;11.18;;;5.97;;
31424;SDS011;18054;51.572;7.372;2022-07-25T01:45:25;12.82;;;7.25;;
31424;SDS011;18054;51.572;7.372;2022-07-25T01:47:53;14.40;;;6.80;;
31424;SDS011;18054;51.572;7.372;2022-07-25T01:50:20;9.43;;;6.45;;
31424;SDS011;18054;51.572;7.372;2022-07-25T01:52:48;14.07;;;6.90;;
31424;SDS011;18054;51.572;7.372;2022-07-25T01:55:17;12.02;;;6.30;;
31424;SDS011;18054;51.572;7.372;2022-07-25T01:57:44;9.60;;;6.40;;
31424;SDS011;18054;51.572;7.372;2022-07-25T02:00:15;19.17;;;7.18;;
31424;SDS011;18054;51.572;7.372;2022-07-25T02:02:44;11.88;;;7.20;;
31424;SDS011;18054;51.572;7.372;2022-07-25T02:05:12;11.98;;;7.55;;
31424;SDS011;18054;51.572;7.372;2022-07-25T02:07:40;13.25;;;7.47;;
31424;SDS011;18054;51.572;7.372;2022-07-25T02:10:07;9.98;;;6.57;;
31424;SDS011;18054;51.572;7.372;2022-07-25T02:15:04;11.65;;;7.13;;
31424;SDS011;18054;51.572;7.372;2022-07-25T02:17:32;11.77;;;7.55;;
31424;SDS011;18054;51.572;7.372;2022-07-25T02:19:59;15.10;;;7.57;;
31424;SDS011;18054;51.572;7.372;2022-07-25T02:22:26;14.55;;;7.35;;
31424;SDS011;18054;51.572;7.372;2022-07-25T02:24:54;11.65;;;7.70;;
31424;SDS011;18054;51.572;7.372;2022-07-25T02:27:21;14.65;;;6.95;;
31424;SDS011;18054;51.572;7.372;2022-07-25T02:29:49;17.52;;;7.53;;
31424;SDS011;18054;51.572;7.372;2022-07-25T02:32:17;12.20;;;8.15;;
31424;SDS011;18054;51.572;7.372;2022-07-25T02:34:45;11.15;;;8.02;;
31424;SDS011;18054;51.572;7.372;2022-07-25T02:37:12;17.25;;;8.00;;
31424;SDS011;18054;51.572;7.372;2022-07-25T02:39:40;13.82;;;7.70;;
31424;SDS011;18054;51.572;7.372;2022-07-25T02:42:07;22.48;;;7.47;;
31424;SDS011;18054;51.572;7.372;2022-07-25T02:44:35;10.55;;;6.90;;
31424;SDS011;18054;51.572;7.372;2022-07-25T02:47:02;12.77;;;7.53;;
31424;SDS011;18054;51.572;7.372;2022-07-25T02:49:31;11.68;;;7.10;;
31424;SDS011;18054;51.572;7.372;2022-07-25T02:51:59;9.68;;;7.03;;
31424;SDS011;18054;51.572;7.372;2022-07-25T02:54:26;13.52;;;6.65;;
31424;SDS011;18054;51.572;7.372;2022-07-25T02:56:53;11.07;;;7.10;;
31424;SDS011;18054;51.572;7.372;2022-07-25T02:59:21;10.60;;;7.38;;
31424;SDS011;18054;51.572;7.372;2022-07-25T03:01:48;10.05;;;7.28;;
31424;SDS011;18054;51.572;7.372;2022-07-25T03:04:16;8.77;;;6.68;;
31424;SDS011;18054;51.572;7.372;2022-07-25T03:06:46;13.02;;;7.53;;
31424;SDS011;18054;51.572;7.372;2022-07-25T03:09:13;11.98;;;8.73;;
31424;SDS011;18054;51.572;7.372;2022-07-25T03:11:41;11.90;;;7.18;;
31424;SDS011;18054;51.572;7.372;2022-07-25T03:14:08;11.30;;;7.07;;
31424;SDS011;18054;51.572;7.372;2022-07-25T03:16:36;10.63;;;7.70;;
31424;SDS011;18054;51.572;7.372;2022-07-25T03:19:03;9.98;;;7.55;;
31424;SDS011;18054;51.572;7.372;2022-07-25T03:21:35;13.75;;;7.30;;
31424;SDS011;18054;51.572;7.372;2022-07-25T03:24:04;15.93;;;7.50;;
31424;SDS011;18054;51.572;7.372;2022-07-25T03:26:32;13.90;;;7.40;;
31424;SDS011;18054;51.572;7.372;2022-07-25T03:28:59;12.98;;;7.28;;
31424;SDS011;18054;51.572;7.372;2022-07-25T03:31:27;15.93;;;8.35;;
31424;SDS011;18054;51.572;7.372;2022-07-25T03:33:54;13.85;;;7.60;;
31424;SDS011;18054;51.572;7.372;2022-07-25T03:36:22;14.05;;;7.68;;
31424;SDS011;18054;51.572;7.372;2022-07-25T03:38:49;16.88;;;7.95;;
31424;SDS011;18054;51.572;7.372;2022-07-25T03:41:18;16.58;;;7.65;;
31424;SDS011;18054;51.572;7.372;2022-07-25T03:43:46;15.68;;;7.72;;
31424;SDS011;18054;51.572;7.372;2022-07-25T03:46:13;17.05;;;7.72;;
31424;SDS011;18054;51.572;7.372;2022-07-25T03:48:41;19.50;;;8.48;;
31424;SDS011;18054;51.572;7.372;2022-07-25T03:51:08;17.08;;;8.55;;
31424;SDS011;18054;51.572;7.372;2022-07-25T03:53:36;15.77;;;8.65;;
31424;SDS011;18054;51.572;7.372;2022-07-25T03:56:28;18.40;;;8.25;;
31424;SDS011;18054;51.572;7.372;2022-07-25T03:58:55;10.48;;;7.43;;
31424;SDS011;18054;51.572;7.372;2022-07-25T04:01:23;13.90;;;8.25;;
31424;SDS011;18054;51.572;7.372;2022-07-25T04:03:52;12.93;;;8.30;;
31424;SDS011;18054;51.572;7.372;2022-07-25T04:06:19;10.93;;;7.75;;
31424;SDS011;18054;51.572;7.372;2022-07-25T04:08:48;11.23;;;7.80;;
31424;SDS011;18054;51.572;7.372;2022-07-25T04:11:16;14.65;;;8.27;;
31424;SDS011;18054;51.572;7.372;2022-07-25T04:13:45;15.60;;;8.40;;
31424;SDS011;18054;51.572;7.372;2022-07-25T04:16:12;13.75;;;8.45;;
31424;SDS011;18054;51.572;7.372;2022-07-25T04:18:47;13.77;;;8.05;;
31424;SDS011;18054;51.572;7.372;2022-07-25T04:21:15;46.95;;;18.55;;
31424;SDS011;18054;51.572;7.372;2022-07-25T04:23:43;15.50;;;8.63;;
31424;SDS011;18054;51.572;7.372;2022-07-25T04:26:10;20.50;;;7.90;;
31424;SDS011;18054;51.572;7.372;2022-07-25T04:28:38;11.43;;;7.65;;
31424;SDS011;18054;51.572;7.372;2022-07-25T04:31:07;11.82;;;7.47;;
31424;SDS011;18054;51.572;7.372;2022-07-25T04:33:35;14.43;;;7.40;;
31424;SDS011;18054;51.572;7.372;2022-07-25T04:36:03;15.27;;;7.97;;
31424;SDS011;18054;51.572;7.372;2022-07-25T04:40:58;12.23;;;7.85;;
31424;SDS011;18054;51.572;7.372;2022-07-25T04:43:25;15.68;;;7.78;;
31424;SDS011;18054;51.572;7.372;2022-07-25T04:45:52;12.95;;;8.63;;
31424;SDS011;18054;51.572;7.372;2022-07-25T04:48:21;21.98;;;8.38;;
31424;SDS011;18054;51.572;7.372;2022-07-25T04:50:49;14.40;;;8.23;;
31424;SDS011;18054;51.572;7.372;2022-07-25T04:53:17;29.17;;;9.48;;
31424;SDS011;18054;51.572;7.372;2022-07-25T04:55:45;14.50;;;8.07;;
31424;SDS011;18054;51.572;7.372;2022-07-25T04:58:12;11.80;;;7.50;;
31424;SDS011;18054;51.572;7.372;2022-07-25T05:00:40;16.55;;;7.57;;
31424;SDS011;18054;51.572;7.372;2022-07-25T05:03:07;9.38;;;6.75;;
31424;SDS011;18054;51.572;7.372;2022-07-25T05:05:36;14.18;;;7.93;;
31424;SDS011;18054;51.572;7.372;2022-07-25T05:08:04;13.00;;;6.97;;
31424;SDS011;18054;51.572;7.372;2022-07-25T05:12:59;19.10;;;8.65;;
31424;SDS011;18054;51.572;7.372;2022-07-25T05:15:26;19.02;;;8.35;;
31424;SDS011;18054;51.572;7.372;2022-07-25T05:17:53;15.68;;;7.75;;
31424;SDS011;18054;51.572;7.372;2022-07-25T05:20:21;17.55;;;7.20;;
31424;SDS011;18054;51.572;7.372;2022-07-25T05:22:50;11.32;;;7.65;;
31424;SDS011;18054;51.572;7.372;2022-07-25T05:25:17;14.43;;;7.57;;
31424;SDS011;18054;51.572;7.372;2022-07-25T05:27:45;16.33;;;7.82;;
31424;SDS011;18054;51.572;7.372;2022-07-25T05:30:12;12.20;;;7.57;;
31424;SDS011;18054;51.572;7.372;2022-07-25T05:32:41;12.48;;;7.57;;
31424;SDS011;18054;51.572;7.372;2022-07-25T05:35:08;18.33;;;8.15;;
31424;SDS011;18054;51.572;7.372;2022-07-25T05:37:36;20.98;;;7.88;;
31424;SDS011;18054;51.572;7.372;2022-07-25T05:40:06;10.30;;;7.00;;
31424;SDS011;18054;51.572;7.372;2022-07-25T05:42:33;11.27;;;7.50;;
31424;SDS011;18054;51.572;7.372;2022-07-25T05:45:01;14.95;;;7.32;;
31424;SDS011;18054;51.572;7.372;2022-07-25T05:47:28;16.27;;;8.18;;
31424;SDS011;18054;51.572;7.372;2022-07-25T05:49:56;15.27;;;7.28;;
31424;SDS011;18054;51.572;7.372;2022-07-25T05:52:23;15.05;;;6.93;;
31424;SDS011;18054;51.572;7.372;2022-07-25T05:54:51;12.30;;;7.05;;
31424;SDS011;18054;51.572;7.372;2022-07-25T05:57:20;10.57;;;6.38;;
31424;SDS011;18054;51.572;7.372;2022-07-25T05:59:47;10.10;;;7.07;;
31424;SDS011;18054;51.572;7.372;2022-07-25T06:02:15;8.43;;;6.70;;
31424;SDS011;18054;51.572;7.372;2022-07-25T06:04:42;14.43;;;6.28;;
31424;SDS011;18054;51.572;7.372;2022-07-25T06:07:10;13.77;;;6.95;;
31424;SDS011;18054;51.572;7.372;2022-07-25T06:09:42;12.32;;;6.10;;
31424;SDS011;18054;51.572;7.372;2022-07-25T06:12:09;13.13;;;6.82;;
31424;SDS011;18054;51.572;7.372;2022-07-25T06:14:38;12.13;;;6.28;;
31424;SDS011;18054;51.572;7.372;2022-07-25T06:17:06;12.35;;;5.88;;
31424;SDS011;18054;51.572;7.372;2022-07-25T06:19:33;16.73;;;7.00;;
31424;SDS011;18054;51.572;7.372;2022-07-25T06:22:01;8.40;;;5.85;;
31424;SDS011;18054;51.572;7.372;2022-07-25T06:24:28;17.35;;;8.20;;
31424;SDS011;18054;51.572;7.372;2022-07-25T06:26:56;15.15;;;5.55;;
31424;SDS011;18054;51.572;7.372;2022-07-25T06:29:23;12.40;;;5.72;;
31424;SDS011;18054;51.572;7.372;2022-07-25T06:31:53;9.45;;;5.10;;
31424;SDS011;18054;51.572;7.372;2022-07-25T06:34:20;11.40;;;5.60;;
31424;SDS011;18054;51.572;7.372;2022-07-25T06:36:53;13.88;;;5.18;;
31424;SDS011;18054;51.572;7.372;2022-07-25T06:39:22;11.65;;;5.93;;
31424;SDS011;18054;51.572;7.372;2022-07-25T06:44:17;12.57;;;5.75;;
31424;SDS011;18054;51.572;7.372;2022-07-25T06:46:45;9.10;;;5.20;;
31424;SDS011;18054;51.572;7.372;2022-07-25T06:49:16;9.50;;;5.55;;
31424;SDS011;18054;51.572;7.372;2022-07-25T06:51:44;8.23;;;5.38;;
31424;SDS011;18054;51.572;7.372;2022-07-25T06:54:11;6.68;;;4.95;;
31424;SDS011;18054;51.572;7.372;2022-07-25T06:56:40;8.90;;;4.82;;
31424;SDS011;18054;51.572;7.372;2022-07-25T06:59:08;9.52;;;6.05;;
31424;SDS011;18054;51.572;7.372;2022-07-25T07:01:35;8.68;;;5.43;;
31424;SDS011;18054;51.572;7.372;2022-07-25T07:04:03;8.35;;;4.82;;
31424;SDS011;18054;51.572;7.372;2022-07-25T07:06:32;9.70;;;5.00;;
31424;SDS011;18054;51.572;7.372;2022-07-25T07:09:01;6.78;;;4.97;;
31424;SDS011;18054;51.572;7.372;2022-07-25T07:11:29;13.80;;;4.53;;
31424;SDS011;18054;51.572;7.372;2022-07-25T07:13:56;12.90;;;4.90;;
31424;SDS011;18054;51.572;7.372;2022-07-25T07:16:24;9.15;;;5.15;;
31424;SDS011;18054;51.572;7.372;2022-07-25T07:21:19;10.90;;;5.15;;
31424;SDS011;18054;51.572;7.372;2022-07-25T07:23:48;9.70;;;5.18;;
31424;SDS011;18054;51.572;7.372;2022-07-25T07:26:19;7.18;;;4.93;;
31424;SDS011;18054;51.572;7.372;2022-07-25T07:28:46;10.38;;;5.13;;
31424;SDS011;18054;51.572;7.372;2022-07-25T07:31:14;9.25;;;5.35;;
31424;SDS011;18054;51.572;7.372;2022-07-25T07:33:43;8.68;;;4.80;;
31424;SDS011;18054;51.572;7.372;2022-07-25T07:36:11;7.75;;;5.00;;
31424;SDS011;18054;51.572;7.372;2022-07-25T07:41:08;9.98;;;4.55;;
31424;SDS011;18054;51.572;7.372;2022-07-25T07:43:35;9.52;;;5.60;;
31424;SDS011;18054;51.572;7.372;2022-07-25T07:50:58;8.30;;;4.68;;
31424;SDS011;18054;51.572;7.372;2022-07-25T07:53:26;6.80;;;4.75;;
31424;SDS011;18054;51.572;7.372;2022-07-25T07:56:09;14.60;;;5.00;;
31424;SDS011;18054;51.572;7.372;2022-07-25T07:58:37;8.48;;;4.97;;
31424;SDS011;18054;51.572;7.372;2022-07-25T08:01:04;10.57;;;5.45;;
31424;SDS011;18054;51.572;7.372;2022-07-25T08:08:26;13.20;;;5.32;;
31424;SDS011;18054;51.572;7.372;2022-07-25T08:10:57;7.88;;;4.72;;
31424;SDS011;18054;51.572;7.372;2022-07-25T08:13:27;11.35;;;4.78;;
31424;SDS011;18054;51.572;7.372;2022-07-25T08:15:56;12.18;;;5.63;;
31424;SDS011;18054;51.572;7.372;2022-07-25T08:18:24;12.02;;;5.20;;
31424;SDS011;18054;51.572;7.372;2022-07-25T08:20:52;9.60;;;5.47;;
31424;SDS011;18054;51.572;7.372;2022-07-25T08:25:47;11.30;;;4.93;;
31424;SDS011;18054;51.572;7.372;2022-07-25T08:30:43;10.95;;;5.43;;
31424;SDS011;18054;51.572;7.372;2022-07-25T08:33:12;8.88;;;5.03;;
31424;SDS011;18054;51.572;7.372;2022-07-25T08:35:44;9.68;;;4.97;;
31424;SDS011;18054;51.572;7.372;2022-07-25T08:38:11;7.72;;;4.80;;
31424;SDS011;18054;51.572;7.372;2022-07-25T08:40:39;15.65;;;4.68;;
31424;SDS011;18054;51.572;7.372;2022-07-25T08:43:09;16.48;;;5.72;;
31424;SDS011;18054;51.572;7.372;2022-07-25T08:45:36;12.43;;;5.55;;
31424;SDS011;18054;51.572;7.372;2022-07-25T08:48:07;13.00;;;4.88;;
31424;SDS011;18054;51.572;7.372;2022-07-25T08:50:34;8.68;;;5.30;;
31424;SDS011;18054;51.572;7.372;2022-07-25T08:53:03;10.55;;;4.97;;
31424;SDS011;18054;51.572;7.372;2022-07-25T08:55:51;9.80;;;5.28;;
31424;SDS011;18054;51.572;7.372;2022-07-25T08:58:18;12.32;;;5.32;;
31424;SDS011;18054;51.572;7.372;2022-07-25T09:00:46;11.00;;;5.07;;
31424;SDS011;18054;51.572;7.372;2022-07-25T09:03:15;11.85;;;4.68;;
31424;SDS011;18054;51.572;7.372;2022-07-25T09:05:43;9.25;;;5.18;;
31424;SDS011;18054;51.572;7.372;2022-07-25T09:13:08;11.45;;;5.78;;
31424;SDS011;18054;51.572;7.372;2022-07-25T09:15:39;8.88;;;5.57;;
31424;SDS011;18054;51.572;7.372;2022-07-25T09:18:09;17.00;;;5.72;;
31424;SDS011;18054;51.572;7.372;2022-07-25T09:20:43;11.30;;;5.18;;
31424;SDS011;18054;51.572;7.372;2022-07-25T09:23:11;7.32;;;5.07;;
31424;SDS011;18054;51.572;7.372;2022-07-25T09:25:41;12.52;;;5.38;;
31424;SDS011;18054;51.572;7.372;2022-07-25T09:28:09;10.38;;;5.57;;
31424;SDS011;18054;51.572;7.372;2022-07-25T09:30:37;10.98;;;5.63;;
31424;SDS011;18054;51.572;7.372;2022-07-25T09:33:05;9.52;;;5.80;;
31424;SDS011;18054;51.572;7.372;2022-07-25T09:35:33;9.88;;;4.97;;
31424;SDS011;18054;51.572;7.372;2022-07-25T09:38:08;13.07;;;6.40;;
31424;SDS011;18054;51.572;7.372;2022-07-25T09:40:36;11.05;;;5.18;;
31424;SDS011;18054;51.572;7.372;2022-07-25T09:45:31;15.88;;;6.03;;
31424;SDS011;18054;51.572;7.372;2022-07-25T09:47:59;16.67;;;6.05;;
31424;SDS011;18054;51.572;7.372;2022-07-25T09:50:28;12.40;;;5.60;;
31424;SDS011;18054;51.572;7.372;2022-07-25T09:52:56;13.00;;;4.90;;
31424;SDS011;18054;51.572;7.372;2022-07-25T09:55:26;11.23;;;5.60;;
31424;SDS011;18054;51.572;7.372;2022-07-25T09:57:54;12.80;;;5.70;;
31424;SDS011;18054;51.572;7.372;2022-07-25T10:00:22;13.45;;;5.65;;
31424;SDS011;18054;51.572;7.372;2022-07-25T10:02:51;12.82;;;5.30;;
31424;SDS011;18054;51.572;7.372;2022-07-25T10:05:36;10.15;;;5.35;;
31424;SDS011;18054;51.572;7.372;2022-07-25T10:08:06;12.90;;;5.47;;
31424;SDS011;18054;51.572;7.372;2022-07-25T10:10:37;11.77;;;5.47;;
31424;SDS011;18054;51.572;7.372;2022-07-25T10:13:07;11.30;;;5.63;;
31424;SDS011;18054;51.572;7.372;2022-07-25T10:15:43;16.52;;;5.38;;
31424;SDS011;18054;51.572;7.372;2022-07-25T10:18:11;9.60;;;5.43;;
31424;SDS011;18054;51.572;7.372;2022-07-25T10:20:39;14.20;;;5.50;;
31424;SDS011;18054;51.572;7.372;2022-07-25T10:25:34;14.10;;;5.43;;
31424;SDS011;18054;51.572;7.372;2022-07-25T10:30:34;10.68;;;4.75;;
31424;SDS011;18054;51.572;7.372;2022-07-25T10:33:03;11.18;;;5.00;;
31424;SDS011;18054;51.572;7.372;2022-07-25T10:35:31;9.60;;;5.35;;
31424;SDS011;18054;51.572;7.372;2022-07-25T10:43:01;9.27;;;4.80;;
31424;SDS011;18054;51.572;7.372;2022-07-25T10:45:41;10.85;;;5.05;;
31424;SDS011;18054;51.572;7.372;2022-07-25T10:48:09;9.90;;;5.28;;
31424;SDS011;18054;51.572;7.372;2022-07-25T10:50:47;11.05;;;5.25;;
31424;SDS011;18054;51.572;7.372;2022-07-25T10:53:26;15.40;;;5.60;;
31424;SDS011;18054;51.572;7.372;2022-07-25T10:55:57;10.77;;;5.53;;
31424;SDS011;18054;51.572;7.372;2022-07-25T10:58:41;14.13;;;6.18;;
31424;SDS011;18054;51.572;7.372;2022-07-25T11:01:11;11.60;;;5.38;;
31424;SDS011;18054;51.572;7.372;2022-07-25T11:03:39;10.02;;;5.43;;
31424;SDS011;18054;51.572;7.372;2022-07-25T11:06:07;12.70;;;5.93;;
31424;SDS011;18054;51.572;7.372;2022-07-25T11:08:34;11.95;;;5.65;;
31424;SDS011;18054;51.572;7.372;2022-07-25T11:11:02;15.55;;;6.35;;
31424;SDS011;18054;51.572;7.372;2022-07-25T11:28:16;9.95;;;5.88;;
31424;SDS011;18054;51.572;7.372;2022-07-25T11:30:45;9.57;;;5.97;;
31424;SDS011;18054;51.572;7.372;2022-07-25T11:33:12;13.45;;;6.55;;
31424;SDS011;18054;51.572;7.372;2022-07-25T11:35:43;8.57;;;5.07;;
31424;SDS011;18054;51.572;7.372;2022-07-25T11:38:11;12.40;;;5.63;;
31424;SDS011;18054;51.572;7.372;2022-07-25T11:40:41;12.10;;;5.72;;
31424;SDS011;18054;51.572;7.372;2022-07-25T11:43:17;9.43;;;5.63;;
31424;SDS011;18054;51.572;7.372;2022-07-25T11:45:54;9.57;;;5.10;;
31424;SDS011;18054;51.572;7.372;2022-07-25T11:48:28;10.23;;;5.10;;
31424;SDS011;18054;51.572;7.372;2022-07-25T11:50:56;17.45;;;5.35;;
31424;SDS011;18054;51.572;7.372;2022-07-25T11:53:23;13.20;;;5.75;;
31424;SDS011;18054;51.572;7.372;2022-07-25T11:55:52;9.80;;;5.07;;
31424;SDS011;18054;51.572;7.372;2022-07-25T11:58:19;12.75;;;4.80;;
31424;SDS011;18054;51.572;7.372;2022-07-25T12:00:50;9.55;;;4.05;;
31424;SDS011;18054;51.572;7.372;2022-07-25T12:03:18;9.50;;;4.35;;
31424;SDS011;18054;51.572;7.372;2022-07-25T12:05:47;16.67;;;4.53;;
31424;SDS011;18054;51.572;7.372;2022-07-25T12:08:15;8.57;;;4.60;;
31424;SDS011;18054;51.572;7.372;2022-07-25T12:10:44;7.45;;;4.07;;
31424;SDS011;18054;51.572;7.372;2022-07-25T12:13:20;14.02;;;4.18;;
31424;SDS011;18054;51.572;7.372;2022-07-25T12:15:47;11.50;;;4.30;;
31424;SDS011;18054;51.572;7.372;2022-07-25T12:18:16;7.07;;;3.88;;
31424;SDS011;18054;51.572;7.372;2022-07-25T12:20:44;9.77;;;4.40;;
31424;SDS011;18054;51.572;7.372;2022-07-25T12:23:12;12.88;;;4.43;;
31424;SDS011;18054;51.572;7.372;2022-07-25T12:25:40;9.63;;;4.10;;
31424;SDS011;18054;51.572;7.372;2022-07-25T12:28:08;10.15;;;4.40;;
31424;SDS011;18054;51.572;7.372;2022-07-25T12:30:38;8.00;;;4.28;;
31424;SDS011;18054;51.572;7.372;2022-07-25T12:33:06;6.78;;;3.92;;
31424;SDS011;18054;51.572;7.372;2022-07-25T12:35:34;8.68;;;4.38;;
31424;SDS011;18054;51.572;7.372;2022-07-25T12:38:03;8.57;;;4.30;;
31424;SDS011;18054;51.572;7.372;2022-07-25T12:40:30;10.18;;;4.10;;
31424;SDS011;18054;51.572;7.372;2022-07-25T12:42:58;9.82;;;3.90;;
31424;SDS011;18054;51.572;7.372;2022-07-25T12:45:26;12.05;;;4.07;;
31424;SDS011;18054;51.572;7.372;2022-07-25T12:47:54;8.23;;;3.72;;
31424;SDS011;18054;51.572;7.372;2022-07-25T12:50:21;6.93;;;3.40;;
31424;SDS011;18054;51.572;7.372;2022-07-25T12:52:52;10.45;;;3.55;;
31424;SDS011;18054;51.572;7.372;2022-07-25T12:55:19;8.00;;;3.20;;
31424;SDS011;18054;51.572;7.372;2022-07-25T12:57:47;6.07;;;2.83;;
31424;SDS011;18054;51.572;7.372;2022-07-25T13:00:17;7.53;;;2.95;;
31424;SDS011;18054;51.572;7.372;2022-07-25T13:02:45;24.10;;;3.70;;
31424;SDS011;18054;51.572;7.372;2022-07-25T13:05:13;13.43;;;3.70;;
31424;SDS011;18054;51.572;7.372;2022-07-25T13:07:40;19.15;;;3.80;;
31424;SDS011;18054;51.572;7.372;2022-07-25T13:10:09;8.15;;;3.72;;
31424;SDS011;18054;51.572;7.372;2022-07-25T13:12:37;6.47;;;3.25;;
31424;SDS011;18054;51.572;7.372;2022-07-25T13:15:05;11.98;;;3.30;;
31424;SDS011;18054;51.572;7.372;2022-07-25T13:17:33;15.05;;;3.30;;
31424;SDS011;18054;51.572;7.372;2022-07-25T13:20:00;12.90;;;3.47;;
31424;SDS011;18054;51.572;7.372;2022-07-25T13:22:28;14.10;;;3.55;;
31424;SDS011;18054;51.572;7.372;2022-07-25T13:27:24;6.90;;;3.60;;
31424;SDS011;18054;51.572;7.372;2022-07-25T13:29:51;11.75;;;3.70;;
31424;SDS011;18054;51.572;7.372;2022-07-25T13:32:20;8.43;;;3.00;;
31424;SDS011;18054;51.572;7.372;2022-07-25T13:34:48;14.98;;;3.22;;
31424;SDS011;18054;51.572;7.372;2022-07-25T13:37:15;10.95;;;3.78;;
31424;SDS011;18054;51.572;7.372;2022-07-25T13:39:43;7.47;;;2.88;;
31424;SDS011;18054;51.572;7.372;2022-07-25T13:44:39;13.48;;;3.10;;
31424;SDS011;18054;51.572;7.372;2022-07-25T13:47:06;8.60;;;3.55;;
31424;SDS011;18054;51.572;7.372;2022-07-25T13:52:02;9.55;;;3.50;;
31424;SDS011;18054;51.572;7.372;2022-07-25T13:54:30;7.03;;;3.00;;
31424;SDS011;18054;51.572;7.372;2022-07-25T13:56:58;7.43;;;2.80;;
31424;SDS011;18054;51.572;7.372;2022-07-25T13:59:25;7.65;;;2.47;;
31424;SDS011;18054;51.572;7.372;2022-07-25T14:04:21;15.48;;;2.42;;
31424;SDS011;18054;51.572;7.372;2022-07-25T14:06:49;11.10;;;2.95;;
31424;SDS011;18054;51.572;7.372;2022-07-25T14:09:18;11.05;;;3.20;;
31424;SDS011;18054;51.572;7.372;2022-07-25T14:11:45;10.07;;;2.95;;
31424;SDS011;18054;51.572;7.372;2022-07-25T14:14:13;9.05;;;2.40;;
31424;SDS011;18054;51.572;7.372;2022-07-25T14:16:40;12.43;;;2.90;;
31424;SDS011;18054;51.572;7.372;2022-07-25T14:19:08;8.45;;;2.63;;
31424;SDS011;18054;51.572;7.372;2022-07-25T14:21:37;15.00;;;2.95;;
31424;SDS011;18054;51.572;7.372;2022-07-25T14:24:05;15.80;;;3.10;;
31424;SDS011;18054;51.572;7.372;2022-07-25T14:26:33;5.43;;;2.45;;
31424;SDS011;18054;51.572;7.372;2022-07-25T14:29:00;5.57;;;2.40;;
31424;SDS011;18054;51.572;7.372;2022-07-25T14:31:28;9.70;;;2.70;;
31424;SDS011;18054;51.572;7.372;2022-07-25T14:33:57;11.43;;;2.58;;
31424;SDS011;18054;51.572;7.372;2022-07-25T14:38:53;8.20;;;2.25;;
31424;SDS011;18054;51.572;7.372;2022-07-25T14:41:20;11.20;;;2.60;;
31424;SDS011;18054;51.572;7.372;2022-07-25T14:46:15;9.88;;;2.80;;
31424;SDS011;18054;51.572;7.372;2022-07-25T14:51:10;5.10;;;2.20;;
31424;SDS011;18054;51.572;7.372;2022-07-25T14:53:37;5.88;;;1.85;;
31424;SDS011;18054;51.572;7.372;2022-07-25T14:56:06;18.80;;;2.58;;
31424;SDS011;18054;51.572;7.372;2022-07-25T14:58:34;11.20;;;2.20;;
31424;SDS011;18054;51.572;7.372;2022-07-25T15:01:03;9.70;;;2.33;;
31424;SDS011;18054;51.572;7.372;2022-07-25T15:03:31;9.95;;;1.83;;
31424;SDS011;18054;51.572;7.372;2022-07-25T15:05:58;8.23;;;2.38;;
31424;SDS011;18054;51.572;7.372;2022-07-25T15:08:27;7.90;;;2.17;;
31424;SDS011;18054;51.572;7.372;2022-07-25T15:10:54;10.73;;;2.42;;
31424;SDS011;18054;51.572;7.372;2022-07-25T15:15:59;11.18;;;2.42;;
31424;SDS011;18054;51.572;7.372;2022-07-25T15:18:27;9.88;;;2.30;;
31424;SDS011;18054;51.572;7.372;2022-07-25T15:23:22;10.43;;;2.60;;
31424;SDS011;18054;51.572;7.372;2022-07-25T15:25:50;17.13;;;2.88;;
31424;SDS011;18054;51.572;7.372;2022-07-25T15:28:28;7.65;;;2.88;;
31424;SDS011;18054;51.572;7.372;2022-07-25T15:33:26;9.85;;;3.67;;
31424;SDS011;18054;51.572;7.372;2022-07-25T15:35:53;9.15;;;3.38;;
31424;SDS011;18054;51.572;7.372;2022-07-25T15:48:11;14.82;;;3.58;;
31424;SDS011;18054;51.572;7.372;2022-07-25T15:50:41;13.20;;;3.45;;
31424;SDS011;18054;51.572;7.372;2022-07-25T15:53:09;9.48;;;3.90;;
31424;SDS011;18054;51.572;7.372;2022-07-25T15:55:37;6.25;;;2.85;;
31424;SDS011;18054;51.572;7.372;2022-07-25T15:58:06;9.98;;;3.40;;
31424;SDS011;18054;51.572;7.372;2022-07-25T16:00:35;10.85;;;3.75;;
31424;SDS011;18054;51.572;7.372;2022-07-25T16:03:02;10.98;;;3.40;;
31424;SDS011;18054;51.572;7.372;2022-07-25T16:05:30;9.35;;;3.60;;
31424;SDS011;18054;51.572;7.372;2022-07-25T16:07:59;10.35;;;3.10;;
31424;SDS011;18054;51.572;7.372;2022-07-25T16:10:27;10.13;;;3.47;;
31424;SDS011;18054;51.572;7.372;2022-07-25T16:12:54;11.25;;;3.53;;
31424;SDS011;18054;51.572;7.372;2022-07-25T16:15:22;6.80;;;2.65;;
31424;SDS011;18054;51.572;7.372;2022-07-25T16:17:51;13.75;;;3.05;;
31424;SDS011;18054;51.572;7.372;2022-07-25T16:20:27;13.95;;;3.30;;
31424;SDS011;18054;51.572;7.372;2022-07-25T16:22:56;10.60;;;2.55;;
31424;SDS011;18054;51.572;7.372;2022-07-25T16:25:26;12.95;;;2.30;;
31424;SDS011;18054;51.572;7.372;2022-07-25T16:27:53;7.85;;;1.75;;
31424;SDS011;18054;51.572;7.372;2022-07-25T16:30:21;4.68;;;1.98;;
31424;SDS011;18054;51.572;7.372;2022-07-25T16:32:49;12.98;;;1.77;;